Time;durP1;ratioP1;P1;durP2;ratioP2;P2;SDS_P1;SDS_P2;PMS_P1;PMS_P2;Temp;Humidity;BMP_temperature;BMP_pressure;BME280_temperature;BME280_humidity;BME280_pressure;Samples;Min_cycle;Max_cycle;Signal;HPM_P1;HPM_P2
2021/01/31 00:00:33;;;;;;;7.75;1.80;;;16.90;47.60;;;;;;5115820;28;20369;-71
2021/01/31 00:03:01;;;;;;;3.05;1.20;;;16.90;47.70;;;;;;5115599;28;20377;-71
2021/01/31 00:05:28;;;;;;;7.13;2.22;;;16.90;47.90;;;;;;5116211;28;20516;-70
2021/01/31 00:07:55;;;;;;;4.40;1.45;;;16.90;48.10;;;;;;5114717;28;20058;-72
2021/01/31 00:10:29;;;;;;;2.05;1.42;;;16.90;48.30;;;;;;5117115;27;20045;-70
2021/01/31 00:12:57;;;;;;;3.80;1.13;;;16.90;47.90;;;;;;5117634;28;20042;-70
2021/01/31 00:15:27;;;;;;;4.25;1.30;;;16.90;47.40;;;;;;5111731;28;20020;-70
2021/01/31 00:17:53;;;;;;;4.20;1.10;;;16.80;48.50;;;;;;5108927;28;20019;-70
2021/01/31 00:20:21;;;;;;;4.75;1.40;;;16.90;48.00;;;;;;5110591;28;20047;-70
2021/01/31 00:22:47;;;;;;;3.42;1.20;;;16.70;48.50;;;;;;5115488;28;20396;-70
2021/01/31 00:25:16;;;;;;;5.07;1.42;;;16.70;48.90;;;;;;5116849;28;20028;-70
2021/01/31 00:27:42;;;;;;;3.03;1.30;;;16.70;48.90;;;;;;5117387;28;20026;-70
2021/01/31 00:30:26;;;;;;;4.70;1.15;;;16.60;49.70;;;;;;5113269;28;20449;-69
2021/01/31 00:32:52;;;;;;;3.58;1.45;;;16.80;48.20;;;;;;5104738;28;20107;-69
2021/01/31 00:35:22;;;;;;;7.35;1.95;;;16.70;48.60;;;;;;5116562;28;20020;-69
2021/01/31 00:37:49;;;;;;;2.50;1.20;;;16.60;48.80;;;;;;5116831;28;20100;-70
2021/01/31 00:40:16;;;;;;;3.72;1.38;;;16.50;49.40;;;;;;5117170;28;20528;-69
2021/01/31 00:42:42;;;;;;;9.23;2.40;;;16.60;48.70;;;;;;5116873;28;20024;-69
2021/01/31 00:45:13;;;;;;;5.78;1.20;;;16.70;48.40;;;;;;5115926;28;20058;-69
2021/01/31 00:47:40;;;;;;;3.75;1.58;;;16.50;48.80;;;;;;5115900;27;20027;-70
2021/01/31 00:50:12;;;;;;;7.63;1.58;;;16.40;48.90;;;;;;5115598;28;20023;-70
2021/01/31 00:52:38;;;;;;;3.70;1.63;;;16.40;48.70;;;;;;5097036;28;20052;-69
2021/01/31 00:55:05;;;;;;;3.08;1.85;;;16.40;48.80;;;;;;5114184;28;20088;-72
2021/01/31 00:57:31;;;;;;;5.13;1.70;;;16.40;49.10;;;;;;5111093;28;20024;-71
2021/01/31 00:59:58;;;;;;;8.30;1.50;;;16.30;49.20;;;;;;5110206;28;20169;-70
2021/01/31 01:02:24;;;;;;;3.08;1.45;;;16.20;49.60;;;;;;5113722;28;20028;-70
2021/01/31 01:04:51;;;;;;;5.40;1.40;;;16.20;49.80;;;;;;5111330;28;20358;-70
2021/01/31 01:07:18;;;;;;;5.82;1.35;;;16.20;49.60;;;;;;5111118;28;20466;-70
2021/01/31 01:09:48;;;;;;;6.40;1.45;;;16.20;49.60;;;;;;5114876;28;20027;-70
2021/01/31 01:12:14;;;;;;;1.60;1.50;;;16.10;50.30;;;;;;5116518;28;20076;-70
2021/01/31 01:14:41;;;;;;;8.82;1.63;;;16.10;50.30;;;;;;5114538;28;20446;-70
2021/01/31 01:17:07;;;;;;;9.05;1.65;;;16.10;50.00;;;;;;5112807;28;20019;-70
2021/01/31 01:19:33;;;;;;;3.85;1.40;;;16.00;50.30;;;;;;5115375;28;20042;-70
2021/01/31 01:22:00;;;;;;;4.85;1.75;;;15.90;50.60;;;;;;5112402;28;20031;-70
2021/01/31 01:24:26;;;;;;;4.07;1.33;;;15.90;50.40;;;;;;5114195;28;20028;-72
2021/01/31 01:26:53;;;;;;;7.03;1.48;;;15.90;50.30;;;;;;5114125;28;20023;-72
2021/01/31 01:29:19;;;;;;;8.02;2.20;;;15.90;50.30;;;;;;5114443;28;20023;-70
2021/01/31 01:31:46;;;;;;;6.07;1.38;;;15.80;50.40;;;;;;5108882;28;20057;-70
2021/01/31 01:34:12;;;;;;;5.57;2.50;;;15.70;50.90;;;;;;5109039;27;20024;-71
2021/01/31 01:36:39;;;;;;;2.67;1.42;;;15.60;51.60;;;;;;5111169;28;20019;-71
2021/01/31 01:39:05;;;;;;;9.57;1.60;;;15.60;51.50;;;;;;5120751;27;20062;-72
2021/01/31 01:41:40;;;;;;;5.72;1.45;;;15.60;51.10;;;;;;5113897;28;20367;-71
2021/01/31 01:44:08;;;;;;;3.97;1.63;;;15.60;51.10;;;;;;5115591;28;20016;-71
2021/01/31 01:46:45;;;;;;;4.60;1.40;;;15.50;51.30;;;;;;5115033;28;20020;-70
2021/01/31 01:49:26;;;;;;;6.68;2.33;;;15.40;51.50;;;;;;5113663;27;20394;-71
2021/01/31 01:52:01;;;;;;;4.15;1.88;;;15.40;51.80;;;;;;5114098;28;20479;-71
2021/01/31 01:54:34;;;;;;;6.78;1.70;;;15.30;51.80;;;;;;5111990;28;20049;-71
2021/01/31 01:57:06;;;;;;;5.30;2.05;;;15.30;51.80;;;;;;5109502;28;20421;-71
2021/01/31 01:59:36;;;;;;;5.15;2.88;;;15.30;51.90;;;;;;5112006;28;20028;-75
2021/01/31 02:02:14;;;;;;;7.95;3.13;;;15.20;52.10;;;;;;5113498;28;20023;-72
2021/01/31 02:04:41;;;;;;;8.10;2.97;;;15.00;52.60;;;;;;5110575;28;20040;-71
2021/01/31 02:07:07;;;;;;;8.63;4.30;;;15.00;53.00;;;;;;5110406;28;20416;-71
2021/01/31 02:09:34;;;;;;;5.10;3.10;;;14.80;53.50;;;;;;5113078;28;20506;-71
2021/01/31 02:12:03;;;;;;;5.65;2.95;;;14.80;53.80;;;;;;5112218;28;20493;-71
2021/01/31 02:14:32;;;;;;;10.02;3.30;;;14.70;53.60;;;;;;5111815;27;20027;-70
2021/01/31 02:17:26;;;;;;;3.97;2.00;;;14.70;53.60;;;;;;5105936;28;20039;-70
2021/01/31 02:20:29;;;;;;;4.72;1.90;;;14.70;53.60;;;;;;5111368;28;20024;-70
2021/01/31 02:23:31;;;;;;;5.47;1.63;;;14.70;53.60;;;;;;5108604;28;20020;-70
2021/01/31 02:26:19;;;;;;;3.72;2.58;;;14.80;53.60;;;;;;5096125;28;20051;-69
2021/01/31 02:28:58;;;;;;;4.07;2.33;;;14.80;53.50;;;;;;5104268;28;20457;-69
2021/01/31 02:32:02;;;;;;;5.60;2.22;;;14.70;53.90;;;;;;5114944;28;20028;-70
2021/01/31 02:34:52;;;;;;;3.75;1.48;;;14.70;53.90;;;;;;5109342;28;20042;-69
2021/01/31 02:37:44;;;;;;;7.22;2.58;;;14.60;54.10;;;;;;5102117;28;20382;-69
2021/01/31 02:40:18;;;;;;;6.22;1.92;;;14.50;54.30;;;;;;5107714;28;20165;-69
2021/01/31 02:43:01;;;;;;;3.95;1.90;;;14.60;54.30;;;;;;5111965;28;20035;-70
2021/01/31 02:45:45;;;;;;;;;;;14.50;54.50;;;;;;5112165;28;20465;-69
2021/01/31 02:48:17;;;;;;;2.65;1.70;;;14.40;54.40;;;;;;5117446;28;20210;-69
2021/01/31 02:51:22;;;;;;;2.85;1.83;;;14.30;55.00;;;;;;5105666;28;20032;-70
2021/01/31 02:54:30;;;;;;;7.05;2.40;;;14.20;54.80;;;;;;5122418;27;20454;-70
2021/01/31 02:57:23;;;;;;;8.75;3.70;;;14.20;54.90;;;;;;5087819;28;20039;-69
2021/01/31 03:00:03;;;;;;;;;;;14.20;54.90;;;;;;5112452;28;20035;-70
2021/01/31 03:02:37;;;;;;;2.72;2.42;;;14.10;54.70;;;;;;5120043;28;19908;-70
2021/01/31 03:05:11;;;;;;;9.13;2.35;;;13.90;55.80;;;;;;5120505;28;20032;-71
2021/01/31 03:08:12;;;;;;;7.15;2.53;;;13.90;55.50;;;;;;5118837;28;20346;-69
2021/01/31 03:10:45;;;;;;;9.65;2.83;;;13.90;55.50;;;;;;5102516;28;20043;-69
2021/01/31 03:13:34;;;;;;;5.60;2.60;;;14.00;55.60;;;;;;5122727;28;20474;-70
2021/01/31 03:16:15;;;;;;;7.28;2.80;;;13.90;56.00;;;;;;5131330;27;20062;-70
2021/01/31 03:18:52;;;;;;;5.35;2.53;;;13.90;56.30;;;;;;5129179;27;20023;-71
2021/01/31 03:21:22;;;;;;;4.45;2.60;;;13.80;56.40;;;;;;5115372;28;20091;-70
2021/01/31 03:23:58;;;;;;;4.22;2.42;;;13.80;56.40;;;;;;5116575;28;20035;-70
2021/01/31 03:26:44;;;;;;;6.18;2.60;;;13.80;56.60;;;;;;5117195;28;20024;-70
2021/01/31 03:29:11;;;;;;;4.93;2.45;;;13.70;56.60;;;;;;5117930;28;20032;-70
2021/01/31 03:31:42;;;;;;;7.32;2.17;;;13.60;56.80;;;;;;5107316;27;20073;-68
2021/01/31 03:34:12;;;;;;;8.82;2.85;;;13.60;56.70;;;;;;5116466;28;20449;-69
2021/01/31 03:36:45;;;;;;;5.70;2.45;;;13.60;57.00;;;;;;5112141;28;20338;-70
2021/01/31 03:39:14;;;;;;;10.38;3.75;;;13.40;57.80;;;;;;5116444;28;20024;-76
2021/01/31 03:41:41;;;;;;;7.30;4.18;;;13.40;57.80;;;;;;5118333;28;20024;-72
2021/01/31 03:44:07;;;;;;;9.05;3.55;;;13.40;57.50;;;;;;5114414;28;20055;-72
2021/01/31 03:46:47;;;;;;;3.72;2.72;;;13.60;57.80;;;;;;5114662;28;20028;-72
2021/01/31 03:49:17;;;;;;;8.18;2.47;;;13.60;57.50;;;;;;5114192;28;20020;-74
2021/01/31 03:51:44;;;;;;;5.32;2.35;;;13.60;57.70;;;;;;5116608;27;20032;-74
2021/01/31 03:54:10;;;;;;;3.92;2.42;;;13.60;57.40;;;;;;5104556;28;20042;-74
2021/01/31 03:57:00;;;;;;;3.83;2.88;;;13.40;57.70;;;;;;5116722;28;20028;-74
2021/01/31 04:00:06;;;;;;;9.25;2.92;;;13.50;58.00;;;;;;5108132;28;20104;-73
2021/01/31 04:02:37;;;;;;;6.55;2.38;;;13.60;58.30;;;;;;5105775;28;20047;-73
2021/01/31 04:05:05;;;;;;;4.78;2.70;;;13.50;57.70;;;;;;5108184;27;20058;-72
2021/01/31 04:07:36;;;;;;;5.95;3.17;;;13.40;58.60;;;;;;5102493;28;20038;-70
2021/01/31 04:10:03;;;;;;;9.52;3.92;;;13.30;58.40;;;;;;5119176;28;20056;-75
2021/01/31 04:12:34;;;;;;;7.57;2.50;;;13.30;58.90;;;;;;5114893;28;20477;-71
2021/01/31 04:15:04;;;;;;;5.13;2.60;;;13.30;58.50;;;;;;5112905;28;20360;-70
2021/01/31 04:17:30;;;;;;;4.50;3.03;;;13.20;59.20;;;;;;5115109;28;20522;-70
2021/01/31 04:19:57;;;;;;;8.07;3.85;;;13.10;59.90;;;;;;5114353;28;20039;-69
2021/01/31 04:22:23;;;;;;;9.27;3.58;;;13.10;60.00;;;;;;5114718;28;20111;-69
2021/01/31 04:24:49;;;;;;;5.35;3.17;;;13.10;59.30;;;;;;5114998;28;20027;-69
2021/01/31 04:27:16;;;;;;;4.15;3.17;;;13.20;59.10;;;;;;5113774;28;20015;-69
2021/01/31 04:29:43;;;;;;;8.98;2.90;;;13.20;58.80;;;;;;5113913;28;20463;-69
2021/01/31 04:32:11;;;;;;;5.32;2.78;;;13.40;59.00;;;;;;5111639;27;20092;-68
2021/01/31 04:34:37;;;;;;;13.10;4.13;;;13.30;58.90;;;;;;5105888;28;20382;-70
2021/01/31 04:37:04;;;;;;;9.18;3.70;;;13.40;59.00;;;;;;5115485;28;20108;-69
2021/01/31 04:39:30;;;;;;;4.53;3.00;;;13.30;58.60;;;;;;5113427;28;20024;-69
2021/01/31 04:41:56;;;;;;;7.57;3.50;;;13.30;59.20;;;;;;5142606;27;20027;-69
2021/01/31 04:44:23;;;;;;;12.02;5.35;;;13.40;59.10;;;;;;5111744;28;20110;-69
2021/01/31 04:47:04;;;;;;;7.53;3.10;;;13.40;59.20;;;;;;5110813;28;20361;-68
2021/01/31 04:50:06;;;;;;;8.30;4.90;;;13.30;59.20;;;;;;5113126;27;20027;-69
2021/01/31 04:52:50;;;;;;;6.93;3.67;;;13.30;59.40;;;;;;5109731;28;20035;-69
2021/01/31 04:55:44;;;;;;;13.88;5.00;;;13.10;58.90;;;;;;5112729;28;20030;-70
2021/01/31 04:58:26;;;;;;;5.03;2.42;;;13.00;59.50;;;;;;5096445;28;20032;-69
2021/01/31 05:01:16;;;;;;;7.07;2.90;;;13.00;59.80;;;;;;5112897;27;20372;-69
2021/01/31 05:03:55;;;;;;;4.50;3.03;;;13.00;59.60;;;;;;5113327;28;20118;-68
2021/01/31 05:06:24;;;;;;;4.72;2.47;;;13.00;59.80;;;;;;5114901;28;20145;-69
2021/01/31 05:08:51;;;;;;;3.03;2.08;;;12.90;60.30;;;;;;5114008;28;20024;-70
2021/01/31 05:11:48;;;;;;;9.50;2.70;;;12.90;60.10;;;;;;5114526;28;20023;-69
2021/01/31 05:14:27;;;;;;;8.95;2.88;;;13.00;59.70;;;;;;5113983;28;20051;-72
2021/01/31 05:16:53;;;;;;;8.55;2.55;;;13.20;59.70;;;;;;5113776;27;20031;-71
2021/01/31 05:19:24;;;;;;;4.43;2.55;;;13.20;59.60;;;;;;5101627;28;20027;-69
2021/01/31 05:21:50;;;;;;;3.15;2.15;;;13.20;59.00;;;;;;5113343;28;20058;-69
2021/01/31 05:24:21;;;;;;;6.78;3.25;;;13.10;59.30;;;;;;5107623;28;20130;-70
2021/01/31 05:27:00;;;;;;;11.60;3.60;;;13.00;59.70;;;;;;5113907;28;20026;-70
2021/01/31 05:29:40;;;;;;;3.47;3.00;;;13.20;59.70;;;;;;5109868;28;20065;-70
2021/01/31 05:32:18;;;;;;;7.65;3.25;;;13.10;59.40;;;;;;5109049;28;20016;-70
2021/01/31 05:34:47;;;;;;;5.50;2.97;;;12.90;59.50;;;;;;5111831;27;20030;-71
2021/01/31 05:37:28;;;;;;;5.18;2.90;;;12.90;59.90;;;;;;5109906;28;20020;-69
2021/01/31 05:40:00;;;;;;;4.40;2.63;;;13.00;59.80;;;;;;5113000;27;20031;-69
2021/01/31 05:42:33;;;;;;;8.52;3.47;;;12.90;59.90;;;;;;5111030;28;20115;-69
2021/01/31 05:45:24;;;;;;;5.25;3.00;;;12.80;59.90;;;;;;5108529;28;20035;-69
2021/01/31 05:47:51;;;;;;;7.57;2.75;;;12.80;60.20;;;;;;5101906;27;20471;-70
2021/01/31 05:50:26;;;;;;;10.77;2.65;;;12.70;60.50;;;;;;5114203;28;20111;-70
2021/01/31 05:52:52;;;;;;;4.55;2.53;;;12.70;60.90;;;;;;5106947;28;20026;-70
2021/01/31 05:55:29;;;;;;;3.28;2.78;;;12.70;61.10;;;;;;5101541;28;20020;-70
2021/01/31 05:58:20;;;;;;;4.88;3.10;;;12.70;61.00;;;;;;5111095;28;20023;-69
2021/01/31 06:00:48;;;;;;;4.45;2.63;;;12.70;60.70;;;;;;5107949;28;20027;-69
2021/01/31 06:03:20;;;;;;;10.82;4.45;;;12.70;60.80;;;;;;5112932;27;20041;-69
2021/01/31 06:05:47;;;;;;;4.65;3.08;;;12.80;60.50;;;;;;5112658;28;20031;-69
2021/01/31 06:08:33;;;;;;;34.92;25.58;;;12.80;60.70;;;;;;5111795;27;20040;-70
2021/01/31 06:11:09;;;;;;;30.13;24.05;;;12.80;60.70;;;;;;5109494;27;21323;-70
2021/01/31 06:13:37;;;;;;;8.27;3.88;;;12.90;60.70;;;;;;5107290;28;20036;-69
2021/01/31 06:16:08;;;;;;;4.22;3.30;;;12.90;60.30;;;;;;5111390;28;20044;-69
2021/01/31 06:18:44;;;;;;;6.65;3.88;;;12.90;60.50;;;;;;5113908;27;20479;-71
2021/01/31 06:21:33;;;;;;;7.18;3.45;;;12.90;60.50;;;;;;5109889;28;20089;-70
2021/01/31 06:24:00;;;;;;;4.85;3.28;;;13.10;60.50;;;;;;5111547;27;20426;-69
2021/01/31 06:26:38;;;;;;;12.27;4.00;;;13.10;59.80;;;;;;5125759;27;20035;-70
2021/01/31 06:29:13;;;;;;;4.93;2.80;;;12.90;60.10;;;;;;5112225;27;20414;-70
2021/01/31 06:31:52;;;;;;;4.45;3.20;;;12.90;60.20;;;;;;5111809;27;20135;-70
2021/01/31 06:34:19;;;;;;;4.57;2.60;;;12.80;60.30;;;;;;5106683;28;20411;-70
2021/01/31 06:37:25;;;;;;;6.88;3.05;;;12.80;60.70;;;;;;5111943;28;20085;-69
2021/01/31 06:40:06;;;;;;;4.57;2.92;;;12.80;60.70;;;;;;5111605;28;20027;-69
2021/01/31 06:42:44;;;;;;;10.60;3.63;;;12.70;60.90;;;;;;5123457;28;20023;-69
2021/01/31 06:45:17;;;;;;;3.33;3.03;;;12.70;61.40;;;;;;5111340;28;20118;-70
2021/01/31 06:48:17;;;;;;;4.85;2.20;;;12.70;61.70;;;;;;5112184;28;20069;-70
2021/01/31 06:50:53;;;;;;;6.38;3.03;;;12.60;61.80;;;;;;5088324;28;20059;-70
2021/01/31 06:53:50;;;;;;;2.50;2.30;;;12.60;62.10;;;;;;5112071;28;20103;-70
2021/01/31 06:56:38;;;;;;;2.42;2.00;;;12.70;61.90;;;;;;5101693;28;20024;-69
2021/01/31 06:59:08;;;;;;;5.13;2.05;;;12.70;62.30;;;;;;5112302;28;20019;-69
2021/01/31 07:01:58;;;;;;;6.85;2.65;;;12.70;62.50;;;;;;5110488;28;20487;-70
2021/01/31 07:04:57;;;;;;;4.78;2.33;;;12.80;61.90;;;;;;5108529;28;20028;-69
2021/01/31 07:07:27;;;;;;;3.80;2.72;;;12.90;61.90;;;;;;5107338;28;20040;-69
2021/01/31 07:10:16;;;;;;;5.13;3.15;;;12.90;61.70;;;;;;5102943;28;20162;-69
2021/01/31 07:12:54;;;;;;;8.15;2.97;;;12.80;61.90;;;;;;5108543;28;20024;-69
2021/01/31 07:15:36;;;;;;;3.40;2.58;;;12.90;62.90;;;;;;5105011;28;20048;-69
2021/01/31 07:18:09;;;;;;;7.30;3.05;;;13.00;61.90;;;;;;5101432;28;20023;-69
2021/01/31 07:20:50;;;;;;;4.72;2.92;;;12.70;61.70;;;;;;5113067;28;20035;-70
2021/01/31 07:23:28;;;;;;;8.13;3.00;;;12.90;62.90;;;;;;5114854;28;20443;-71
2021/01/31 07:26:21;;;;;;;5.18;3.05;;;12.80;61.80;;;;;;5105904;28;20505;-69
2021/01/31 07:28:54;;;;;;;8.38;3.30;;;12.80;62.50;;;;;;5105149;28;20035;-70
2021/01/31 07:31:36;;;;;;;4.82;2.58;;;12.70;62.90;;;;;;5111244;28;20032;-70
2021/01/31 07:34:39;;;;;;;5.50;3.72;;;12.70;63.20;;;;;;5113340;28;20044;-69
2021/01/31 07:37:16;;;;;;;6.13;3.13;;;13.00;63.00;;;;;;5114263;28;20028;-70
2021/01/31 07:40:07;;;;;;;7.28;3.60;;;13.00;62.50;;;;;;5111444;28;20038;-69
2021/01/31 07:42:41;;;;;;;6.28;4.20;;;12.90;62.60;;;;;;5116084;28;20055;-69
2021/01/31 07:45:15;;;;;;;4.68;2.80;;;12.90;63.10;;;;;;5116019;28;20062;-69
2021/01/31 07:47:41;;;;;;;5.75;2.97;;;12.80;62.70;;;;;;5097597;28;20039;-69
2021/01/31 07:50:11;;;;;;;8.63;3.25;;;12.80;63.60;;;;;;5115560;27;20087;-72
2021/01/31 07:53:09;;;;;;;11.88;3.25;;;12.70;63.00;;;;;;5115485;28;20024;-70
2021/01/31 07:55:41;;;;;;;4.82;3.38;;;12.60;63.50;;;;;;5078754;28;20038;-69
2021/01/31 07:58:37;;;;;;;5.90;3.15;;;12.60;63.50;;;;;;5112128;28;20454;-70
2021/01/31 08:01:04;;;;;;;10.30;3.55;;;12.70;63.40;;;;;;5111500;28;20066;-69
2021/01/31 08:03:40;;;;;;;4.55;3.00;;;12.60;63.60;;;;;;5108447;28;20494;-70
2021/01/31 08:06:18;;;;;;;2.97;2.75;;;12.60;64.00;;;;;;5115429;27;20453;-69
2021/01/31 08:08:55;;;;;;;3.50;2.63;;;12.50;64.30;;;;;;5107649;28;20019;-70
2021/01/31 08:11:21;;;;;;;4.22;3.20;;;12.60;64.20;;;;;;5115580;28;20112;-70
2021/01/31 08:13:50;;;;;;;6.20;3.00;;;12.60;64.40;;;;;;5116681;27;20076;-69
2021/01/31 08:16:47;;;;;;;7.20;3.55;;;12.60;64.60;;;;;;5113740;27;20479;-69
2021/01/31 08:19:19;;;;;;;8.10;2.78;;;12.70;63.80;;;;;;5113081;28;20102;-69
2021/01/31 08:21:56;;;;;;;7.65;3.58;;;12.80;64.00;;;;;;5105439;28;20059;-69
2021/01/31 08:25:01;;;;;;;13.15;5.18;;;12.80;64.30;;;;;;5116180;27;20035;-69
2021/01/31 08:27:42;;;;;;;3.72;2.78;;;12.90;63.80;;;;;;5116875;28;20020;-73
2021/01/31 08:30:37;;;;;;;5.22;4.38;;;12.80;64.00;;;;;;5116330;28;20023;-70
2021/01/31 08:33:06;;;;;;;4.75;3.20;;;12.90;63.90;;;;;;5114218;28;20026;-70
2021/01/31 08:35:45;;;;;;;15.27;4.13;;;12.80;64.20;;;;;;5108949;28;20038;-70
2021/01/31 08:38:32;;;;;;;4.47;3.22;;;13.00;64.30;;;;;;5112271;28;20019;-69
2021/01/31 08:41:02;;;;;;;5.32;2.97;;;12.80;63.80;;;;;;5112912;27;20019;-70
2021/01/31 08:43:48;;;;;;;10.57;3.53;;;12.70;64.00;;;;;;5111777;28;20028;-70
2021/01/31 08:46:30;;;;;;;6.75;3.17;;;12.90;64.10;;;;;;5114264;28;20034;-70
2021/01/31 08:49:00;;;;;;;7.38;2.95;;;12.80;64.00;;;;;;5115178;28;20027;-70
2021/01/31 08:51:28;;;;;;;5.97;2.95;;;12.70;64.40;;;;;;5113206;28;20381;-70
2021/01/31 08:54:08;;;;;;;9.93;2.83;;;12.70;64.40;;;;;;5107490;28;20027;-70
2021/01/31 08:56:52;;;;;;;6.25;2.95;;;12.70;64.60;;;;;;5114733;28;20027;-70
2021/01/31 08:59:45;;;;;;;6.22;3.08;;;12.80;64.40;;;;;;5113422;28;20501;-70
2021/01/31 09:02:16;;;;;;;3.20;2.60;;;12.90;64.20;;;;;;5109395;28;20039;-70
2021/01/31 09:04:55;;;;;;;2.90;2.50;;;12.80;64.30;;;;;;5113434;28;20024;-70
2021/01/31 09:07:24;;;;;;;8.10;2.67;;;12.80;64.30;;;;;;5115038;28;20012;-70
2021/01/31 09:10:22;;;;;;;3.00;2.15;;;12.90;64.10;;;;;;5113816;28;20039;-70
2021/01/31 09:12:49;;;;;;;7.00;3.80;;;12.80;64.30;;;;;;5113837;28;20019;-70
2021/01/31 09:15:24;;;;;;;6.38;2.65;;;12.90;64.60;;;;;;5113376;28;20509;-70
2021/01/31 09:17:51;;;;;;;8.45;2.47;;;12.90;64.50;;;;;;5113330;28;20051;-70
2021/01/31 09:20:29;;;;;;;6.65;2.95;;;12.90;64.20;;;;;;5110878;28;20070;-70
2021/01/31 09:23:00;;;;;;;10.57;3.10;;;13.00;63.60;;;;;;5111783;28;20401;-70
2021/01/31 09:25:32;;;;;;;4.32;2.92;;;13.00;63.60;;;;;;5114397;28;20039;-70
2021/01/31 09:28:16;;;;;;;6.03;3.25;;;13.00;63.60;;;;;;5114610;28;20023;-70
2021/01/31 09:30:43;;;;;;;4.97;2.30;;;13.00;63.60;;;;;;5114336;28;20028;-73
2021/01/31 09:33:21;;;;;;;4.95;2.70;;;12.90;63.90;;;;;;5112814;28;20020;-70
2021/01/31 09:35:47;;;;;;;9.07;2.70;;;12.80;64.10;;;;;;5109885;28;20023;-70
2021/01/31 09:38:19;;;;;;;2.28;2.05;;;12.80;64.20;;;;;;5110386;28;20068;-70
2021/01/31 09:40:47;;;;;;;6.55;2.45;;;12.70;64.40;;;;;;5112576;27;20037;-70
2021/01/31 09:43:22;;;;;;;4.22;1.90;;;12.70;65.00;;;;;;5110173;28;20043;-70
2021/01/31 09:45:52;;;;;;;2.50;2.30;;;12.60;65.10;;;;;;5113880;28;20023;-70
2021/01/31 09:48:22;;;;;;;3.50;2.60;;;12.70;65.20;;;;;;5113528;28;20024;-70
2021/01/31 09:50:58;;;;;;;5.65;2.92;;;12.70;64.70;;;;;;5109678;28;20107;-70
2021/01/31 09:53:42;;;;;;;4.03;1.90;;;12.70;64.70;;;;;;5111045;28;20032;-69
2021/01/31 09:56:44;;;;;;;7.80;2.88;;;12.70;64.90;;;;;;5110035;28;20012;-70
2021/01/31 09:59:28;;;;;;;3.92;2.10;;;12.80;64.00;;;;;;5110301;28;20031;-69
2021/01/31 10:02:09;;;;;;;7.05;2.97;;;12.80;64.10;;;;;;5112624;28;20037;-69
2021/01/31 10:04:37;;;;;;;2.20;2.08;;;12.70;64.30;;;;;;5111962;28;20030;-70
2021/01/31 10:07:21;;;;;;;4.35;2.33;;;12.80;64.10;;;;;;5111075;28;20034;-69
2021/01/31 10:09:50;;;;;;;3.13;2.60;;;12.80;64.00;;;;;;5110990;28;20062;-69
2021/01/31 10:12:25;;;;;;;5.00;2.42;;;12.90;64.10;;;;;;5114706;27;20031;-69
2021/01/31 10:14:52;;;;;;;3.47;2.00;;;12.90;63.70;;;;;;5109722;28;20468;-69
2021/01/31 10:17:35;;;;;;;5.15;2.22;;;12.80;63.80;;;;;;5112586;28;20028;-69
2021/01/31 10:20:28;;;;;;;2.92;2.50;;;12.80;63.90;;;;;;5112126;28;20412;-69
2021/01/31 10:22:58;;;;;;;1.75;1.63;;;12.80;64.20;;;;;;5112357;28;20022;-69
2021/01/31 10:25:25;;;;;;;5.45;2.30;;;12.70;64.40;;;;;;5111782;28;20063;-69
2021/01/31 10:27:51;;;;;;;3.22;2.35;;;12.70;64.30;;;;;;5107779;28;20034;-69
2021/01/31 10:30:46;;;;;;;4.72;2.28;;;12.80;64.40;;;;;;5113162;28;20338;-69
2021/01/31 10:33:49;;;;;;;9.68;2.67;;;12.80;64.00;;;;;;5107155;28;20454;-69
2021/01/31 10:36:25;;;;;;;5.75;1.70;;;13.00;63.00;;;;;;5108049;28;20365;-71
2021/01/31 10:38:54;;;;;;;4.95;2.40;;;13.00;62.40;;;;;;5111958;28;20027;-69
2021/01/31 10:41:21;;;;;;;2.78;2.17;;;12.90;62.70;;;;;;5110321;28;20457;-70
2021/01/31 10:44:06;;;;;;;3.65;2.20;;;12.80;63.30;;;;;;5113440;28;20024;-70
2021/01/31 10:46:34;;;;;;;6.10;3.00;;;12.70;63.70;;;;;;5111397;28;20337;-70
2021/01/31 10:49:00;;;;;;;1.75;1.65;;;12.80;63.60;;;;;;5111673;28;20032;-69
2021/01/31 10:51:31;;;;;;;2.55;1.73;;;12.70;63.70;;;;;;5109758;28;20032;-70
2021/01/31 10:53:57;;;;;;;6.45;1.48;;;12.70;64.00;;;;;;5111508;28;20076;-70
2021/01/31 10:56:24;;;;;;;8.60;2.00;;;12.70;63.60;;;;;;5111718;28;20023;-70
2021/01/31 10:58:51;;;;;;;4.45;2.13;;;12.70;64.20;;;;;;5112170;28;20490;-69
2021/01/31 11:01:19;;;;;;;5.60;2.15;;;12.70;64.40;;;;;;5109188;28;20028;-70
2021/01/31 11:03:46;;;;;;;2.85;2.10;;;12.70;64.30;;;;;;5109918;28;20322;-70
2021/01/31 11:06:12;;;;;;;1.90;1.80;;;12.70;64.40;;;;;;5111064;28;20020;-70
2021/01/31 11:08:39;;;;;;;3.50;2.13;;;12.70;64.10;;;;;;5116117;28;20032;-70
2021/01/31 11:11:06;;;;;;;2.83;2.00;;;12.70;64.20;;;;;;5115635;28;20445;-69
2021/01/31 11:13:33;;;;;;;2.88;2.05;;;12.70;64.40;;;;;;5114294;28;20031;-70
2021/01/31 11:16:00;;;;;;;1.50;1.40;;;12.70;64.60;;;;;;5116417;28;20091;-70
2021/01/31 11:18:26;;;;;;;2.67;1.83;;;12.70;64.40;;;;;;5116309;28;20398;-70
2021/01/31 11:20:53;;;;;;;2.08;1.88;;;12.70;64.60;;;;;;5113844;28;20027;-69
2021/01/31 11:23:19;;;;;;;8.32;2.40;;;12.80;64.30;;;;;;5115922;28;20080;-70
2021/01/31 11:25:46;;;;;;;3.85;3.25;;;12.80;63.90;;;;;;5117612;28;20027;-70
2021/01/31 11:28:12;;;;;;;7.25;2.00;;;12.90;63.20;;;;;;5116382;28;20030;-70
2021/01/31 11:30:39;;;;;;;4.45;1.88;;;12.80;63.60;;;;;;5116227;28;20463;-70
2021/01/31 11:33:06;;;;;;;4.55;2.22;;;12.80;63.90;;;;;;5117124;28;20023;-70
2021/01/31 11:35:33;;;;;;;3.95;2.53;;;12.70;64.10;;;;;;5112332;28;20024;-70
2021/01/31 11:37:59;;;;;;;2.92;1.80;;;12.70;64.30;;;;;;5116821;28;20484;-70
2021/01/31 11:40:26;;;;;;;5.25;1.85;;;12.70;64.20;;;;;;5119895;28;20028;-70
2021/01/31 11:42:53;;;;;;;3.13;1.50;;;12.70;63.90;;;;;;5111703;28;20400;-69
2021/01/31 11:45:22;;;;;;;3.28;1.80;;;12.70;64.10;;;;;;5111627;28;20518;-70
2021/01/31 11:47:48;;;;;;;5.68;1.83;;;12.80;64.20;;;;;;5115995;28;20031;-70
2021/01/31 11:50:17;;;;;;;3.35;1.67;;;12.70;64.60;;;;;;5115884;28;20032;-70
2021/01/31 11:52:43;;;;;;;2.65;2.42;;;12.70;64.30;;;;;;5115795;28;20015;-70
2021/01/31 11:55:10;;;;;;;5.10;1.90;;;12.60;64.50;;;;;;5116391;27;20464;-69
2021/01/31 11:57:37;;;;;;;3.42;1.80;;;12.70;63.70;;;;;;5114922;28;20192;-70
2021/01/31 12:00:10;;;;;;;5.53;1.90;;;12.70;63.40;;;;;;5117324;28;20140;-70
2021/01/31 12:02:36;;;;;;;2.40;2.00;;;12.70;63.90;;;;;;5113185;28;20023;-69
2021/01/31 12:05:03;;;;;;;3.92;3.53;;;12.70;63.60;;;;;;5114370;28;20162;-70
2021/01/31 12:07:30;;;;;;;4.70;2.15;;;12.70;63.70;;;;;;5131365;27;20420;-70
2021/01/31 12:09:56;;;;;;;2.80;2.10;;;12.60;63.80;;;;;;5114518;28;20144;-70
2021/01/31 12:12:23;;;;;;;6.70;2.22;;;12.70;63.90;;;;;;5112413;28;20016;-69
2021/01/31 12:14:49;;;;;;;5.45;2.10;;;12.60;64.20;;;;;;5116377;28;20030;-70
2021/01/31 12:17:16;;;;;;;2.50;2.30;;;12.60;64.20;;;;;;5115913;28;20026;-69
2021/01/31 12:19:42;;;;;;;2.00;1.70;;;12.60;64.30;;;;;;5115090;28;20052;-70
2021/01/31 12:22:08;;;;;;;3.13;1.98;;;12.60;64.10;;;;;;5114481;28;20027;-70
2021/01/31 12:24:35;;;;;;;2.00;1.90;;;12.60;63.80;;;;;;5112343;28;20024;-70
2021/01/31 12:27:01;;;;;;;5.75;2.17;;;12.60;63.70;;;;;;5110581;28;20433;-70
2021/01/31 12:29:27;;;;;;;3.92;2.17;;;12.60;63.90;;;;;;5111822;28;20032;-69
2021/01/31 12:31:54;;;;;;;4.60;2.40;;;12.60;64.00;;;;;;5116011;28;20107;-70
2021/01/31 12:34:20;;;;;;;5.40;2.20;;;12.60;63.90;;;;;;5116063;28;20024;-70
2021/01/31 12:36:47;;;;;;;6.40;2.55;;;12.60;64.20;;;;;;5114584;28;20026;-70
2021/01/31 12:39:13;;;;;;;3.15;2.15;;;12.60;63.90;;;;;;5112981;28;20024;-70
2021/01/31 12:41:39;;;;;;;5.70;2.25;;;12.60;64.30;;;;;;5115745;28;20016;-70
2021/01/31 12:44:06;;;;;;;5.63;2.10;;;12.60;64.20;;;;;;5115334;27;20034;-71
2021/01/31 12:46:32;;;;;;;11.27;2.25;;;12.70;63.80;;;;;;5116373;27;20020;-69
2021/01/31 12:48:58;;;;;;;3.38;2.47;;;12.70;63.60;;;;;;5116289;28;20023;-69
2021/01/31 12:51:27;;;;;;;4.78;1.80;;;12.90;63.20;;;;;;5112723;27;20054;-70
2021/01/31 12:53:53;;;;;;;4.63;1.83;;;12.80;63.00;;;;;;5113344;27;20020;-71
2021/01/31 12:56:20;;;;;;;4.40;1.88;;;12.70;63.40;;;;;;5114049;28;20020;-70
2021/01/31 12:58:46;;;;;;;2.33;1.85;;;12.60;63.80;;;;;;5115648;28;20027;-70
2021/01/31 13:01:13;;;;;;;1.85;1.50;;;12.60;63.90;;;;;;5112674;28;20359;-70
2021/01/31 13:03:39;;;;;;;4.35;1.92;;;12.60;64.20;;;;;;5115968;28;20026;-70
2021/01/31 13:06:05;;;;;;;6.43;2.03;;;12.50;64.40;;;;;;5109829;28;20019;-69
2021/01/31 13:08:32;;;;;;;4.97;2.28;;;12.50;64.60;;;;;;5113928;28;20034;-70
2021/01/31 13:10:58;;;;;;;5.38;1.85;;;12.50;64.70;;;;;;5114800;28;20026;-70
2021/01/31 13:13:25;;;;;;;5.47;1.80;;;12.50;64.80;;;;;;5112241;28;20016;-71
2021/01/31 13:15:51;;;;;;;4.43;1.80;;;12.50;64.50;;;;;;5111896;28;20023;-70
2021/01/31 13:18:17;;;;;;;1.83;1.65;;;12.60;64.70;;;;;;5111656;28;20023;-70
2021/01/31 13:20:44;;;;;;;2.33;1.92;;;12.60;64.70;;;;;;5114771;28;20028;-70